Papuan Chief — VRRC — position and weather

sailwx.info

Track history (hours):
 
Tides and Currents Weather Stations Pressure Air Temp Water Temp Dewpoint Dewpoint Depression Visibility Wind Speed Wind Dir Waves Ship Positions

Papuan Chief

Last reported at 2018-Feb-23 00:54 UTC. Time now 2018-Feb-23 10:56 UTC.
Position S 32°26' E 152°39'.

Length 158.1 m; beam 22 m; draft 7.8 m.

Type: Ship (hazmat cat D). MMSI: 477061000.

Date/timePositionNaut miles runAvg speedWind from/ knotsBaromVisibWave heightAir tempDewpointWater temp
2018-Feb-23 00:54S 32°26' E 152°39'710.5
2018-Feb-23 00:11S 32°32' E 152°33'210.3
2018-Feb-23 00:00S 32°33' E 152°32'510.6
2018-Feb-22 23:30S 32°37' E 152°28'510.4
2018-Feb-22 23:00S 32°42' E 152°25'5 9.8
2018-Feb-22 22:30S 32°45' E 152°20'5 9.6
2018-Feb-22 22:00S 32°48' E 152°16'5 9.4
2018-Feb-22 21:30S 32°51' E 152°11'510.1
2018-Feb-22 21:00S 32°54' E 152°06'5 9.4
2018-Feb-22 20:30S 32°56' E 152°02'5 9.4
2018-Feb-22 20:00S 32°59' E 151°57'5 9.4
2018-Feb-22 19:30S 33°03' E 151°53'3110.0
2018-Feb-22 16:25S 33°29' E 151°34'511.1
2018-Feb-22 16:00S 33°33' E 151°31'711.2
2018-Feb-22 15:24S 33°39' E 151°28'410.9
2018-Feb-22 15:00S 33°43' E 151°26'510.6
2018-Feb-22 14:30S 33°48' E 151°23'265 5.5
2018-Feb-20 14:30S 37°53' E 149°18'612.4
2018-Feb-20 14:00S 37°54' E 149°11'612.1
2018-Feb-20 13:30S 37°58' E 149°04'612.4
2018-Feb-20 12:59S 38°02' E 148°58'612.4
2018-Feb-20 12:30S 38°06' E 148°53'612.4
2018-Feb-20 12:00S 38°11' E 148°47'612.5
2018-Feb-20 11:30S 38°15' E 148°42'612.4
2018-Feb-20 10:59S 38°20' E 148°37'7011.9
2018-Feb-20 05:08S 39°02' E 147°25'2011.6
2018-Feb-20 03:22S 39°09' E 147°01'4410.6
2018-Feb-19 23:15S 39°12' E 146°04'511.5
2018-Feb-19 22:50S 39°10' E 145°59'511.5
2018-Feb-19 22:25S 39°08' E 145°53'91 2.7
2018-Feb-18 13:12S 37°49' E 144°55'0 0.9
2018-Feb-18 12:53S 37°49' E 144°55'1 2.5
2018-Feb-18 12:30S 37°50' E 144°54'4 7.5
2018-Feb-18 11:55S 37°54' E 144°55'1 0.3
2018-Feb-18 09:31S 37°54' E 144°54'0 0.0
2018-Feb-18 07:43S 37°54' E 144°54'0 0.0
2018-Feb-18 07:28S 37°54' E 144°54'0 0.0
2018-Feb-18 05:25S 37°54' E 144°55'0 0.0
2018-Feb-18 04:58S 37°54' E 144°55'0 0.0
2018-Feb-18 04:16S 37°54' E 144°55'0 0.4
2018-Feb-18 04:00S 37°54' E 144°54'3 5.2
2018-Feb-18 03:25S 37°57' E 144°54'76 7.2
2018-Feb-17 16:49S 38°60' E 145°49'2112.2
2018-Feb-17 15:07S 39°10' E 146°12'9012.4
2018-Feb-17 07:51S 38°45' E 148°04'412.0
2018-Feb-17 07:30S 38°44' E 148°09'612.0
2018-Feb-17 07:00S 38°41' E 148°16'612.1
2018-Feb-17 06:28S 38°38' E 148°23'612.1
2018-Feb-17 06:00S 38°33' E 148°27'612.5
2018-Feb-17 05:29S 38°28' E 148°31'612.8
2018-Feb-17 05:00S 38°22' E 148°35'713.7
2018-Feb-17 04:30S 38°17' E 148°41'612.8
2018-Feb-17 04:00S 38°12' E 148°46'713.5
2018-Feb-17 03:30S 38°07' E 148°52'713.5
2018-Feb-17 03:00S 38°02' E 148°58'712.8
2018-Feb-17 02:29S 37°58' E 149°04'612.3
2018-Feb-17 01:59S 37°54' E 149°10'612.5
2018-Feb-17 01:29S 37°53' E 149°18'612.4
2018-Feb-17 01:00S 37°52' E 149°26'712.7
2018-Feb-17 00:29S 37°49' E 149°33'25212.1
2018-Feb-16 03:33S 33°53' E 151°23'212.8
2018-Feb-16 03:25S 33°51' E 151°24'612.9
2018-Feb-16 02:58S 33°45' E 151°25'612.6
2018-Feb-16 02:29S 33°40' E 151°27'612.6
2018-Feb-16 01:59S 33°34' E 151°30'612.2
2018-Feb-16 01:28S 33°28' E 151°34'612.4
2018-Feb-16 01:00S 33°23' E 151°37'2112.7
2018-Feb-15 23:21S 33°05' E 151°50'513.3
2018-Feb-15 23:00S 33°02' E 151°54'714.5
2018-Feb-15 22:30S 32°57' E 152°00'714.4
2018-Feb-15 22:00S 32°53' E 152°07'714.2
2018-Feb-15 21:30S 32°49' E 152°14'714.5
2018-Feb-15 21:00S 32°44' E 152°21'714.5
2018-Feb-15 20:31S 32°38' E 152°26'714.6
2018-Feb-15 20:00S 32°33' E 152°32'714.2
2018-Feb-15 19:30S 32°28' E 152°38'  
2018-Feb-13 02:17S 22°39' E 166°13'413.7
2018-Feb-13 01:59S 22°37' E 166°17'713.5
2018-Feb-13 01:29S 22°33' E 166°23'712.9
2018-Feb-13 00:58S 22°30' E 166°29'  
Track history (hours):
 
Tides and Currents Weather Stations Pressure Air Temp Water Temp Dewpoint Dewpoint Depression Visibility Wind Speed Wind Dir Waves Ship Positions

Papuan Chief

Last reported at 2018-Feb-23 00:54 UTC. Time now 2018-Feb-23 10:56 UTC.
Position S 32°26' E 152°39'.

Length 158.1 m; beam 22 m; draft 7.8 m.

Type: Ship (hazmat cat D). MMSI: 477061000.

Date/timePositionNaut miles runAvg speedWind from/ knotsBaromVisibWave heightAir tempDewpointWater temp
2018-Feb-23 00:54S 32°26' E 152°39'710.5
2018-Feb-23 00:11S 32°32' E 152°33'210.3
2018-Feb-23 00:00S 32°33' E 152°32'510.6
2018-Feb-22 23:30S 32°37' E 152°28'510.4
2018-Feb-22 23:00S 32°42' E 152°25'5 9.8
2018-Feb-22 22:30S 32°45' E 152°20'5 9.6
2018-Feb-22 22:00S 32°48' E 152°16'5 9.4
2018-Feb-22 21:30S 32°51' E 152°11'510.1
2018-Feb-22 21:00S 32°54' E 152°06'5 9.4
2018-Feb-22 20:30S 32°56' E 152°02'5 9.4
2018-Feb-22 20:00S 32°59' E 151°57'5 9.4
2018-Feb-22 19:30S 33°03' E 151°53'3110.0
2018-Feb-22 16:25S 33°29' E 151°34'511.1
2018-Feb-22 16:00S 33°33' E 151°31'711.2
2018-Feb-22 15:24S 33°39' E 151°28'410.9
2018-Feb-22 15:00S 33°43' E 151°26'510.6
2018-Feb-22 14:30S 33°48' E 151°23'265 5.5
2018-Feb-20 14:30S 37°53' E 149°18'612.4
2018-Feb-20 14:00S 37°54' E 149°11'612.1
2018-Feb-20 13:30S 37°58' E 149°04'612.4
2018-Feb-20 12:59S 38°02' E 148°58'612.4
2018-Feb-20 12:30S 38°06' E 148°53'612.4
2018-Feb-20 12:00S 38°11' E 148°47'612.5
2018-Feb-20 11:30S 38°15' E 148°42'612.4
2018-Feb-20 10:59S 38°20' E 148°37'7011.9
2018-Feb-20 05:08S 39°02' E 147°25'2011.6
2018-Feb-20 03:22S 39°09' E 147°01'4410.6
2018-Feb-19 23:15S 39°12' E 146°04'511.5
2018-Feb-19 22:50S 39°10' E 145°59'511.5
2018-Feb-19 22:25S 39°08' E 145°53'91 2.7
2018-Feb-18 13:12S 37°49' E 144°55'0 0.9
2018-Feb-18 12:53S 37°49' E 144°55'1 2.5
2018-Feb-18 12:30S 37°50' E 144°54'4 7.5
2018-Feb-18 11:55S 37°54' E 144°55'1 0.3
2018-Feb-18 09:31S 37°54' E 144°54'0 0.0
2018-Feb-18 07:43S 37°54' E 144°54'0 0.0
2018-Feb-18 07:28S 37°54' E 144°54'0 0.0
2018-Feb-18 05:25S 37°54' E 144°55'0 0.0
2018-Feb-18 04:58S 37°54' E 144°55'0 0.0
2018-Feb-18 04:16S 37°54' E 144°55'0 0.4
2018-Feb-18 04:00S 37°54' E 144°54'3 5.2
2018-Feb-18 03:25S 37°57' E 144°54'76 7.2
2018-Feb-17 16:49S 38°60' E 145°49'2112.2
2018-Feb-17 15:07S 39°10' E 146°12'9012.4
2018-Feb-17 07:51S 38°45' E 148°04'412.0
2018-Feb-17 07:30S 38°44' E 148°09'612.0
2018-Feb-17 07:00S 38°41' E 148°16'612.1
2018-Feb-17 06:28S 38°38' E 148°23'612.1
2018-Feb-17 06:00S 38°33' E 148°27'612.5
2018-Feb-17 05:29S 38°28' E 148°31'612.8
2018-Feb-17 05:00S 38°22' E 148°35'713.7
2018-Feb-17 04:30S 38°17' E 148°41'612.8
2018-Feb-17 04:00S 38°12' E 148°46'713.5
2018-Feb-17 03:30S 38°07' E 148°52'713.5
2018-Feb-17 03:00S 38°02' E 148°58'712.8
2018-Feb-17 02:29S 37°58' E 149°04'612.3
2018-Feb-17 01:59S 37°54' E 149°10'612.5
2018-Feb-17 01:29S 37°53' E 149°18'612.4
2018-Feb-17 01:00S 37°52' E 149°26'712.7
2018-Feb-17 00:29S 37°49' E 149°33'25212.1
2018-Feb-16 03:33S 33°53' E 151°23'212.8
2018-Feb-16 03:25S 33°51' E 151°24'612.9
2018-Feb-16 02:58S 33°45' E 151°25'612.6
2018-Feb-16 02:29S 33°40' E 151°27'612.6
2018-Feb-16 01:59S 33°34' E 151°30'612.2
2018-Feb-16 01:28S 33°28' E 151°34'612.4
2018-Feb-16 01:00S 33°23' E 151°37'2112.7
2018-Feb-15 23:21S 33°05' E 151°50'513.3
2018-Feb-15 23:00S 33°02' E 151°54'714.5
2018-Feb-15 22:30S 32°57' E 152°00'714.4
2018-Feb-15 22:00S 32°53' E 152°07'714.2
2018-Feb-15 21:30S 32°49' E 152°14'714.5
2018-Feb-15 21:00S 32°44' E 152°21'714.5
2018-Feb-15 20:31S 32°38' E 152°26'714.6
2018-Feb-15 20:00S 32°33' E 152°32'714.2
2018-Feb-15 19:30S 32°28' E 152°38'  
2018-Feb-13 02:17S 22°39' E 166°13'413.7
2018-Feb-13 01:59S 22°37' E 166°17'713.5
2018-Feb-13 01:29S 22°33' E 166°23'712.9
2018-Feb-13 00:58S 22°30' E 166°29'  

Dump ship's entire track history